sensor_id;sensor_type;location;lat;lon;timestamp;temperature;humidity
14142;DHT22;7151;52.246;4.820;2022-07-04T00:00:01;21.60;56.50
14142;DHT22;7151;52.246;4.820;2022-07-04T00:02:27;21.60;56.60
14142;DHT22;7151;52.246;4.820;2022-07-04T00:04:52;21.60;56.70
14142;DHT22;7151;52.246;4.820;2022-07-04T00:07:18;21.60;56.70
14142;DHT22;7151;52.246;4.820;2022-07-04T00:09:44;21.50;56.70
14142;DHT22;7151;52.246;4.820;2022-07-04T00:12:10;21.50;56.80
14142;DHT22;7151;52.246;4.820;2022-07-04T00:14:35;21.50;56.90
14142;DHT22;7151;52.246;4.820;2022-07-04T00:17:01;21.50;57.00
14142;DHT22;7151;52.246;4.820;2022-07-04T00:19:26;21.50;57.00
14142;DHT22;7151;52.246;4.820;2022-07-04T00:21:52;21.50;57.10
14142;DHT22;7151;52.246;4.820;2022-07-04T00:24:18;21.50;57.10
14142;DHT22;7151;52.246;4.820;2022-07-04T00:26:44;21.50;57.10
14142;DHT22;7151;52.246;4.820;2022-07-04T00:29:10;21.40;57.10
14142;DHT22;7151;52.246;4.820;2022-07-04T00:31:35;21.40;57.20
14142;DHT22;7151;52.246;4.820;2022-07-04T00:34:01;21.40;57.20
14142;DHT22;7151;52.246;4.820;2022-07-04T00:36:27;21.40;57.20
14142;DHT22;7151;52.246;4.820;2022-07-04T00:38:52;21.40;57.30
14142;DHT22;7151;52.246;4.820;2022-07-04T00:41:18;21.40;57.30
14142;DHT22;7151;52.246;4.820;2022-07-04T00:43:43;21.30;57.30
14142;DHT22;7151;52.246;4.820;2022-07-04T00:46:09;21.30;57.30
14142;DHT22;7151;52.246;4.820;2022-07-04T00:48:34;21.30;57.40
14142;DHT22;7151;52.246;4.820;2022-07-04T00:51:00;21.30;57.40
14142;DHT22;7151;52.246;4.820;2022-07-04T00:53:26;21.30;57.50
14142;DHT22;7151;52.246;4.820;2022-07-04T00:55:52;21.20;57.50
14142;DHT22;7151;52.246;4.820;2022-07-04T00:58:20;21.20;57.60
14142;DHT22;7151;52.246;4.820;2022-07-04T01:00:46;21.20;57.80
14142;DHT22;7151;52.246;4.820;2022-07-04T01:03:12;21.10;57.70
14142;DHT22;7151;52.246;4.820;2022-07-04T01:05:38;21.10;57.80
14142;DHT22;7151;52.246;4.820;2022-07-04T01:08:05;21.10;57.90
14142;DHT22;7151;52.246;4.820;2022-07-04T01:10:31;21.10;58.00
14142;DHT22;7151;52.246;4.820;2022-07-04T01:12:56;21.10;58.00
14142;DHT22;7151;52.246;4.820;2022-07-04T01:15:22;21.10;58.00
14142;DHT22;7151;52.246;4.820;2022-07-04T01:17:48;21.10;58.10
14142;DHT22;7151;52.246;4.820;2022-07-04T01:20:14;21.00;58.10
14142;DHT22;7151;52.246;4.820;2022-07-04T01:22:40;21.00;58.10
14142;DHT22;7151;52.246;4.820;2022-07-04T01:25:07;21.00;58.20
14142;DHT22;7151;52.246;4.820;2022-07-04T01:27:33;21.00;58.30
14142;DHT22;7151;52.246;4.820;2022-07-04T01:29:58;21.00;58.40
14142;DHT22;7151;52.246;4.820;2022-07-04T01:32:24;20.90;58.40
14142;DHT22;7151;52.246;4.820;2022-07-04T01:34:49;20.90;58.50
14142;DHT22;7151;52.246;4.820;2022-07-04T01:37:15;20.90;58.50
14142;DHT22;7151;52.246;4.820;2022-07-04T01:39:41;20.90;58.60
14142;DHT22;7151;52.246;4.820;2022-07-04T01:42:07;20.90;58.70
14142;DHT22;7151;52.246;4.820;2022-07-04T01:44:33;20.90;58.70
14142;DHT22;7151;52.246;4.820;2022-07-04T01:46:58;20.90;58.80
14142;DHT22;7151;52.246;4.820;2022-07-04T01:49:24;20.90;58.80
14142;DHT22;7151;52.246;4.820;2022-07-04T01:51:50;20.90;58.90
14142;DHT22;7151;52.246;4.820;2022-07-04T01:54:16;20.80;58.80
14142;DHT22;7151;52.246;4.820;2022-07-04T01:56:42;20.80;58.90
14142;DHT22;7151;52.246;4.820;2022-07-04T01:59:09;20.80;59.00
14142;DHT22;7151;52.246;4.820;2022-07-04T02:01:35;20.80;59.10
14142;DHT22;7151;52.246;4.820;2022-07-04T02:04:02;20.80;59.20
14142;DHT22;7151;52.246;4.820;2022-07-04T02:06:29;20.80;59.20
14142;DHT22;7151;52.246;4.820;2022-07-04T02:08:55;20.70;59.20
14142;DHT22;7151;52.246;4.820;2022-07-04T02:11:40;20.70;59.30
14142;DHT22;7151;52.246;4.820;2022-07-04T02:14:24;20.70;59.40
14142;DHT22;7151;52.246;4.820;2022-07-04T02:16:50;20.70;59.40
14142;DHT22;7151;52.246;4.820;2022-07-04T02:19:15;20.70;59.50
14142;DHT22;7151;52.246;4.820;2022-07-04T02:21:42;20.70;59.60
14142;DHT22;7151;52.246;4.820;2022-07-04T02:24:07;20.70;59.60
14142;DHT22;7151;52.246;4.820;2022-07-04T02:26:33;20.60;59.70
14142;DHT22;7151;52.246;4.820;2022-07-04T02:28:58;20.60;60.40
14142;DHT22;7151;52.246;4.820;2022-07-04T02:31:25;20.60;59.80
14142;DHT22;7151;52.246;4.820;2022-07-04T02:33:51;20.60;59.90
14142;DHT22;7151;52.246;4.820;2022-07-04T02:36:16;20.60;59.90
14142;DHT22;7151;52.246;4.820;2022-07-04T02:38:42;20.60;60.00
14142;DHT22;7151;52.246;4.820;2022-07-04T02:41:07;20.50;60.00
14142;DHT22;7151;52.246;4.820;2022-07-04T02:43:33;20.50;60.20
14142;DHT22;7151;52.246;4.820;2022-07-04T02:45:59;20.50;60.40
14142;DHT22;7151;52.246;4.820;2022-07-04T02:48:24;20.50;60.40
14142;DHT22;7151;52.246;4.820;2022-07-04T02:50:50;20.50;60.60
14142;DHT22;7151;52.246;4.820;2022-07-04T02:53:15;20.50;60.70
14142;DHT22;7151;52.246;4.820;2022-07-04T02:55:41;20.40;60.90
14142;DHT22;7151;52.246;4.820;2022-07-04T02:58:06;20.40;61.00
14142;DHT22;7151;52.246;4.820;2022-07-04T03:00:32;20.40;61.10
14142;DHT22;7151;52.246;4.820;2022-07-04T03:02:57;20.40;61.20
14142;DHT22;7151;52.246;4.820;2022-07-04T03:05:23;20.40;61.30
14142;DHT22;7151;52.246;4.820;2022-07-04T03:07:48;20.40;61.30
14142;DHT22;7151;52.246;4.820;2022-07-04T03:10:14;20.40;61.40
14142;DHT22;7151;52.246;4.820;2022-07-04T03:12:39;20.40;61.50
14142;DHT22;7151;52.246;4.820;2022-07-04T03:15:05;20.40;61.60
14142;DHT22;7151;52.246;4.820;2022-07-04T03:17:31;20.40;61.80
14142;DHT22;7151;52.246;4.820;2022-07-04T03:19:57;20.40;61.80
14142;DHT22;7151;52.246;4.820;2022-07-04T03:22:23;20.40;61.90
14142;DHT22;7151;52.246;4.820;2022-07-04T03:24:48;20.40;62.10
14142;DHT22;7151;52.246;4.820;2022-07-04T03:27:14;20.40;62.10
14142;DHT22;7151;52.246;4.820;2022-07-04T03:29:40;20.40;62.20
14142;DHT22;7151;52.246;4.820;2022-07-04T03:32:06;20.30;62.10
14142;DHT22;7151;52.246;4.820;2022-07-04T03:34:31;20.30;62.30
14142;DHT22;7151;52.246;4.820;2022-07-04T03:36:57;20.30;62.30
14142;DHT22;7151;52.246;4.820;2022-07-04T03:39:23;20.30;62.50
14142;DHT22;7151;52.246;4.820;2022-07-04T03:41:48;20.30;62.50
14142;DHT22;7151;52.246;4.820;2022-07-04T03:44:14;20.30;62.50
14142;DHT22;7151;52.246;4.820;2022-07-04T03:46:39;20.30;62.60
14142;DHT22;7151;52.246;4.820;2022-07-04T03:49:05;20.30;62.80
14142;DHT22;7151;52.246;4.820;2022-07-04T03:51:31;20.30;62.90
14142;DHT22;7151;52.246;4.820;2022-07-04T03:53:57;20.30;63.00
14142;DHT22;7151;52.246;4.820;2022-07-04T03:56:22;20.20;63.10
14142;DHT22;7151;52.246;4.820;2022-07-04T03:58:48;20.20;63.20
14142;DHT22;7151;52.246;4.820;2022-07-04T04:01:18;20.20;63.40
14142;DHT22;7151;52.246;4.820;2022-07-04T04:03:44;20.20;63.50
14142;DHT22;7151;52.246;4.820;2022-07-04T04:06:29;20.20;64.30
14142;DHT22;7151;52.246;4.820;2022-07-04T04:08:54;20.20;63.70
14142;DHT22;7151;52.246;4.820;2022-07-04T04:11:20;20.20;63.90
14142;DHT22;7151;52.246;4.820;2022-07-04T04:13:45;20.20;64.00
14142;DHT22;7151;52.246;4.820;2022-07-04T04:16:11;20.20;64.10
14142;DHT22;7151;52.246;4.820;2022-07-04T04:18:37;20.20;64.30
14142;DHT22;7151;52.246;4.820;2022-07-04T04:21:03;20.20;65.10
14142;DHT22;7151;52.246;4.820;2022-07-04T04:23:29;20.20;64.50
14142;DHT22;7151;52.246;4.820;2022-07-04T04:25:55;20.20;64.60
14142;DHT22;7151;52.246;4.820;2022-07-04T04:28:21;20.20;64.70
14142;DHT22;7151;52.246;4.820;2022-07-04T04:30:46;20.20;64.80
14142;DHT22;7151;52.246;4.820;2022-07-04T04:33:12;20.20;64.90
14142;DHT22;7151;52.246;4.820;2022-07-04T04:35:38;20.20;65.00
14142;DHT22;7151;52.246;4.820;2022-07-04T04:38:04;20.20;65.10
14142;DHT22;7151;52.246;4.820;2022-07-04T04:40:29;20.10;65.20
14142;DHT22;7151;52.246;4.820;2022-07-04T04:42:55;20.10;65.20
14142;DHT22;7151;52.246;4.820;2022-07-04T04:45:21;20.10;65.40
14142;DHT22;7151;52.246;4.820;2022-07-04T04:47:47;20.10;65.60
14142;DHT22;7151;52.246;4.820;2022-07-04T04:50:12;20.10;65.70
14142;DHT22;7151;52.246;4.820;2022-07-04T04:52:41;20.10;65.90
14142;DHT22;7151;52.246;4.820;2022-07-04T04:55:07;20.10;66.10
14142;DHT22;7151;52.246;4.820;2022-07-04T04:57:33;20.10;66.20
14142;DHT22;7151;52.246;4.820;2022-07-04T04:59:59;20.20;66.40
14142;DHT22;7151;52.246;4.820;2022-07-04T05:02:25;20.20;66.50
14142;DHT22;7151;52.246;4.820;2022-07-04T05:04:50;20.20;66.70
14142;DHT22;7151;52.246;4.820;2022-07-04T05:07:16;20.20;66.80
14142;DHT22;7151;52.246;4.820;2022-07-04T05:09:42;20.20;66.90
14142;DHT22;7151;52.246;4.820;2022-07-04T05:12:08;20.20;67.10
14142;DHT22;7151;52.246;4.820;2022-07-04T05:14:33;20.20;67.10
14142;DHT22;7151;52.246;4.820;2022-07-04T05:16:59;20.20;67.30
14142;DHT22;7151;52.246;4.820;2022-07-04T05:19:24;20.20;67.50
14142;DHT22;7151;52.246;4.820;2022-07-04T05:21:50;20.20;67.60
14142;DHT22;7151;52.246;4.820;2022-07-04T05:24:15;20.20;67.70
14142;DHT22;7151;52.246;4.820;2022-07-04T05:26:42;20.20;67.90
14142;DHT22;7151;52.246;4.820;2022-07-04T05:29:08;20.30;68.10
14142;DHT22;7151;52.246;4.820;2022-07-04T05:31:33;20.30;68.20
14142;DHT22;7151;52.246;4.820;2022-07-04T05:33:59;20.30;68.40
14142;DHT22;7151;52.246;4.820;2022-07-04T05:36:25;20.30;68.50
14142;DHT22;7151;52.246;4.820;2022-07-04T05:38:51;20.40;68.80
14142;DHT22;7151;52.246;4.820;2022-07-04T05:41:17;20.40;68.90
14142;DHT22;7151;52.246;4.820;2022-07-04T05:43:43;20.40;69.00
14142;DHT22;7151;52.246;4.820;2022-07-04T05:46:08;20.40;69.20
14142;DHT22;7151;52.246;4.820;2022-07-04T05:48:34;20.40;69.30
14142;DHT22;7151;52.246;4.820;2022-07-04T05:50:59;20.50;69.60
14142;DHT22;7151;52.246;4.820;2022-07-04T05:53:25;20.50;69.80
14142;DHT22;7151;52.246;4.820;2022-07-04T05:55:51;20.50;70.00
14142;DHT22;7151;52.246;4.820;2022-07-04T05:58:16;20.60;70.30
14142;DHT22;7151;52.246;4.820;2022-07-04T06:00:42;20.60;70.50
14142;DHT22;7151;52.246;4.820;2022-07-04T06:03:08;20.60;71.30
14142;DHT22;7151;52.246;4.820;2022-07-04T06:05:34;20.70;70.90
14142;DHT22;7151;52.246;4.820;2022-07-04T06:08:00;20.70;71.00
14142;DHT22;7151;52.246;4.820;2022-07-04T06:10:26;20.70;71.10
14142;DHT22;7151;52.246;4.820;2022-07-04T06:12:52;20.80;71.30
14142;DHT22;7151;52.246;4.820;2022-07-04T06:15:18;20.80;71.30
14142;DHT22;7151;52.246;4.820;2022-07-04T06:17:43;20.80;71.50
14142;DHT22;7151;52.246;4.820;2022-07-04T06:20:09;20.90;71.60
14142;DHT22;7151;52.246;4.820;2022-07-04T06:22:42;20.90;71.80
14142;DHT22;7151;52.246;4.820;2022-07-04T06:25:19;21.00;71.70
14142;DHT22;7151;52.246;4.820;2022-07-04T06:27:46;21.00;71.10
14142;DHT22;7151;52.246;4.820;2022-07-04T06:30:13;21.00;70.80
14142;DHT22;7151;52.246;4.820;2022-07-04T06:32:46;21.00;70.70
14142;DHT22;7151;52.246;4.820;2022-07-04T06:35:13;21.10;70.50
14142;DHT22;7151;52.246;4.820;2022-07-04T06:37:58;21.10;70.20
14142;DHT22;7151;52.246;4.820;2022-07-04T06:40:24;21.20;70.00
14142;DHT22;7151;52.246;4.820;2022-07-04T06:42:50;21.20;69.80
14142;DHT22;7151;52.246;4.820;2022-07-04T06:45:16;21.20;69.70
14142;DHT22;7151;52.246;4.820;2022-07-04T06:47:42;21.20;69.70
14142;DHT22;7151;52.246;4.820;2022-07-04T06:50:08;21.30;69.70
14142;DHT22;7151;52.246;4.820;2022-07-04T06:52:34;21.30;69.60
14142;DHT22;7151;52.246;4.820;2022-07-04T06:55:00;21.40;69.50
14142;DHT22;7151;52.246;4.820;2022-07-04T06:57:25;21.40;69.30
14142;DHT22;7151;52.246;4.820;2022-07-04T06:59:51;21.50;69.20
14142;DHT22;7151;52.246;4.820;2022-07-04T07:02:17;21.50;68.80
14142;DHT22;7151;52.246;4.820;2022-07-04T07:04:42;21.50;68.50
14142;DHT22;7151;52.246;4.820;2022-07-04T07:07:08;21.60;68.00
14142;DHT22;7151;52.246;4.820;2022-07-04T07:09:34;21.60;67.50
14142;DHT22;7151;52.246;4.820;2022-07-04T07:12:00;21.60;67.10
14142;DHT22;7151;52.246;4.820;2022-07-04T07:14:26;21.70;66.70
14142;DHT22;7151;52.246;4.820;2022-07-04T07:16:51;21.70;66.40
14142;DHT22;7151;52.246;4.820;2022-07-04T07:19:17;21.70;66.30
14142;DHT22;7151;52.246;4.820;2022-07-04T07:21:43;21.70;66.20
14142;DHT22;7151;52.246;4.820;2022-07-04T07:24:08;21.80;66.20
14142;DHT22;7151;52.246;4.820;2022-07-04T07:26:34;21.80;66.00
14142;DHT22;7151;52.246;4.820;2022-07-04T07:28:59;21.90;66.00
14142;DHT22;7151;52.246;4.820;2022-07-04T07:31:25;21.90;65.70
14142;DHT22;7151;52.246;4.820;2022-07-04T07:33:50;21.90;65.40
14142;DHT22;7151;52.246;4.820;2022-07-04T07:36:16;22.00;65.00
14142;DHT22;7151;52.246;4.820;2022-07-04T07:38:43;22.00;64.30
14142;DHT22;7151;52.246;4.820;2022-07-04T07:41:10;22.00;63.70
14142;DHT22;7151;52.246;4.820;2022-07-04T07:43:36;22.10;63.50
14142;DHT22;7151;52.246;4.820;2022-07-04T07:46:06;22.10;63.10
14142;DHT22;7151;52.246;4.820;2022-07-04T07:48:32;22.10;62.80
14142;DHT22;7151;52.246;4.820;2022-07-04T07:50:58;22.20;62.90
14142;DHT22;7151;52.246;4.820;2022-07-04T07:53:23;22.20;62.90
14142;DHT22;7151;52.246;4.820;2022-07-04T07:55:49;22.30;62.70
14142;DHT22;7151;52.246;4.820;2022-07-04T07:58:15;22.30;62.50
14142;DHT22;7151;52.246;4.820;2022-07-04T08:00:40;22.30;62.50
14142;DHT22;7151;52.246;4.820;2022-07-04T08:03:06;22.40;62.80
14142;DHT22;7151;52.246;4.820;2022-07-04T08:05:50;22.40;62.60
14142;DHT22;7151;52.246;4.820;2022-07-04T08:08:16;22.50;62.10
14142;DHT22;7151;52.246;4.820;2022-07-04T08:10:41;22.50;61.50
14142;DHT22;7151;52.246;4.820;2022-07-04T08:13:07;22.50;61.10
14142;DHT22;7151;52.246;4.820;2022-07-04T08:15:33;22.50;60.90
14142;DHT22;7151;52.246;4.820;2022-07-04T08:17:59;22.60;60.90
14142;DHT22;7151;52.246;4.820;2022-07-04T08:20:24;22.60;60.70
14142;DHT22;7151;52.246;4.820;2022-07-04T08:22:50;22.60;60.80
14142;DHT22;7151;52.246;4.820;2022-07-04T08:25:16;22.70;60.90
14142;DHT22;7151;52.246;4.820;2022-07-04T08:27:42;22.80;60.90
14142;DHT22;7151;52.246;4.820;2022-07-04T08:30:08;22.80;60.60
14142;DHT22;7151;52.246;4.820;2022-07-04T08:32:34;22.80;60.40
14142;DHT22;7151;52.246;4.820;2022-07-04T08:35:01;22.80;60.10
14142;DHT22;7151;52.246;4.820;2022-07-04T08:37:26;22.90;60.00
14142;DHT22;7151;52.246;4.820;2022-07-04T08:39:53;22.80;59.60
14142;DHT22;7151;52.246;4.820;2022-07-04T08:42:21;22.80;59.50
14142;DHT22;7151;52.246;4.820;2022-07-04T08:44:48;22.90;59.60
14142;DHT22;7151;52.246;4.820;2022-07-04T08:47:20;22.90;59.70
14142;DHT22;7151;52.246;4.820;2022-07-04T08:52:38;22.90;59.50
14142;DHT22;7151;52.246;4.820;2022-07-04T08:55:05;22.90;59.50
14142;DHT22;7151;52.246;4.820;2022-07-04T08:57:51;23.00;59.40
14142;DHT22;7151;52.246;4.820;2022-07-04T09:00:35;23.00;59.40
14142;DHT22;7151;52.246;4.820;2022-07-04T09:03:02;23.00;59.20
14142;DHT22;7151;52.246;4.820;2022-07-04T09:05:28;23.00;58.90
14142;DHT22;7151;52.246;4.820;2022-07-04T09:07:55;23.00;58.70
14142;DHT22;7151;52.246;4.820;2022-07-04T09:10:21;23.00;58.70
14142;DHT22;7151;52.246;4.820;2022-07-04T09:12:48;23.10;58.80
14142;DHT22;7151;52.246;4.820;2022-07-04T09:15:18;23.10;58.80
14142;DHT22;7151;52.246;4.820;2022-07-04T09:17:44;23.20;58.70
14142;DHT22;7151;52.246;4.820;2022-07-04T09:22:39;23.20;58.20
14142;DHT22;7151;52.246;4.820;2022-07-04T09:25:06;23.20;58.10
14142;DHT22;7151;52.246;4.820;2022-07-04T09:27:36;23.30;58.00
14142;DHT22;7151;52.246;4.820;2022-07-04T09:30:06;23.30;58.00
14142;DHT22;7151;52.246;4.820;2022-07-04T09:32:39;23.40;57.90
14142;DHT22;7151;52.246;4.820;2022-07-04T09:35:13;23.40;57.40
14142;DHT22;7151;52.246;4.820;2022-07-04T09:37:43;23.40;57.20
14142;DHT22;7151;52.246;4.820;2022-07-04T09:40:25;23.50;57.20
14142;DHT22;7151;52.246;4.820;2022-07-04T09:42:52;23.50;56.80
14142;DHT22;7151;52.246;4.820;2022-07-04T09:45:18;23.60;57.00
14142;DHT22;7151;52.246;4.820;2022-07-04T09:47:45;23.60;57.10
14142;DHT22;7151;52.246;4.820;2022-07-04T09:50:15;23.60;56.90
14142;DHT22;7151;52.246;4.820;2022-07-04T09:52:58;23.70;56.30
14142;DHT22;7151;52.246;4.820;2022-07-04T09:55:27;23.70;56.30
14142;DHT22;7151;52.246;4.820;2022-07-04T09:57:56;23.80;56.50
14142;DHT22;7151;52.246;4.820;2022-07-04T10:00:30;23.80;56.40
14142;DHT22;7151;52.246;4.820;2022-07-04T10:02:57;23.90;56.40
14142;DHT22;7151;52.246;4.820;2022-07-04T10:05:40;23.90;56.20
14142;DHT22;7151;52.246;4.820;2022-07-04T10:08:06;24.00;56.10
14142;DHT22;7151;52.246;4.820;2022-07-04T10:10:36;24.00;55.80
14142;DHT22;7151;52.246;4.820;2022-07-04T10:13:07;24.00;55.30
14142;DHT22;7151;52.246;4.820;2022-07-04T10:15:34;24.10;55.30
14142;DHT22;7151;52.246;4.820;2022-07-04T10:18:00;24.10;55.20
14142;DHT22;7151;52.246;4.820;2022-07-04T10:20:26;24.10;55.00
14142;DHT22;7151;52.246;4.820;2022-07-04T10:22:52;24.20;54.90
14142;DHT22;7151;52.246;4.820;2022-07-04T10:25:18;24.20;54.80
14142;DHT22;7151;52.246;4.820;2022-07-04T10:27:44;24.30;54.90
14142;DHT22;7151;52.246;4.820;2022-07-04T10:30:13;24.30;54.70
14142;DHT22;7151;52.246;4.820;2022-07-04T10:32:40;24.30;54.50
14142;DHT22;7151;52.246;4.820;2022-07-04T10:35:08;24.40;54.40
14142;DHT22;7151;52.246;4.820;2022-07-04T10:38:05;24.40;54.00
14142;DHT22;7151;52.246;4.820;2022-07-04T10:46:43;24.50;53.60
14142;DHT22;7151;52.246;4.820;2022-07-04T10:49:08;24.60;53.80
14142;DHT22;7151;52.246;4.820;2022-07-04T10:52:09;24.60;53.60
14142;DHT22;7151;52.246;4.820;2022-07-04T10:54:35;24.70;53.60
14142;DHT22;7151;52.246;4.820;2022-07-04T10:57:13;24.70;53.30
14142;DHT22;7151;52.246;4.820;2022-07-04T10:59:41;24.70;52.60
14142;DHT22;7151;52.246;4.820;2022-07-04T11:04:45;24.80;52.00
14142;DHT22;7151;52.246;4.820;2022-07-04T11:07:12;24.80;51.90
14142;DHT22;7151;52.246;4.820;2022-07-04T11:09:37;24.80;52.10
14142;DHT22;7151;52.246;4.820;2022-07-04T11:12:04;24.80;51.90
14142;DHT22;7151;52.246;4.820;2022-07-04T11:14:45;24.90;51.70
14142;DHT22;7151;52.246;4.820;2022-07-04T11:19:41;24.90;51.30
14142;DHT22;7151;52.246;4.820;2022-07-04T11:22:08;25.00;51.30
14142;DHT22;7151;52.246;4.820;2022-07-04T11:24:35;25.00;51.00
14142;DHT22;7151;52.246;4.820;2022-07-04T11:27:01;25.00;50.90
14142;DHT22;7151;52.246;4.820;2022-07-04T11:29:28;25.10;50.70
14142;DHT22;7151;52.246;4.820;2022-07-04T11:31:55;25.10;50.50
14142;DHT22;7151;52.246;4.820;2022-07-04T11:34:21;25.10;50.50
14142;DHT22;7151;52.246;4.820;2022-07-04T11:36:48;25.10;50.40
14142;DHT22;7151;52.246;4.820;2022-07-04T11:39:16;25.20;50.10
14142;DHT22;7151;52.246;4.820;2022-07-04T11:41:47;25.20;49.90
14142;DHT22;7151;52.246;4.820;2022-07-04T11:44:35;25.20;49.90
14142;DHT22;7151;52.246;4.820;2022-07-04T11:47:40;25.30;49.60
14142;DHT22;7151;52.246;4.820;2022-07-04T11:50:11;25.30;49.10
14142;DHT22;7151;52.246;4.820;2022-07-04T11:55:07;25.40;49.50
14142;DHT22;7151;52.246;4.820;2022-07-04T11:57:35;25.50;49.40
14142;DHT22;7151;52.246;4.820;2022-07-04T12:00:14;25.50;49.50
14142;DHT22;7151;52.246;4.820;2022-07-04T12:02:40;25.60;49.30
14142;DHT22;7151;52.246;4.820;2022-07-04T12:05:09;25.60;49.20
14142;DHT22;7151;52.246;4.820;2022-07-04T12:07:37;25.70;49.30
14142;DHT22;7151;52.246;4.820;2022-07-04T12:10:16;25.80;49.10
14142;DHT22;7151;52.246;4.820;2022-07-04T12:12:59;25.90;48.90
14142;DHT22;7151;52.246;4.820;2022-07-04T12:15:35;25.90;48.70
14142;DHT22;7151;52.246;4.820;2022-07-04T12:18:01;26.00;48.70
14142;DHT22;7151;52.246;4.820;2022-07-04T12:20:27;26.10;48.50
14142;DHT22;7151;52.246;4.820;2022-07-04T12:22:56;26.20;48.20
14142;DHT22;7151;52.246;4.820;2022-07-04T12:25:26;26.30;48.10
14142;DHT22;7151;52.246;4.820;2022-07-04T12:28:00;26.30;48.00
14142;DHT22;7151;52.246;4.820;2022-07-04T12:30:28;26.30;47.80
14142;DHT22;7151;52.246;4.820;2022-07-04T12:33:03;26.30;47.80
14142;DHT22;7151;52.246;4.820;2022-07-04T12:35:33;26.40;47.90
14142;DHT22;7151;52.246;4.820;2022-07-04T12:38:10;26.50;47.90
14142;DHT22;7151;52.246;4.820;2022-07-04T12:40:37;26.50;47.50
14142;DHT22;7151;52.246;4.820;2022-07-04T12:43:03;26.60;47.50
14142;DHT22;7151;52.246;4.820;2022-07-04T12:45:50;26.70;47.30
14142;DHT22;7151;52.246;4.820;2022-07-04T12:48:28;26.80;46.90
14142;DHT22;7151;52.246;4.820;2022-07-04T12:50:59;26.80;46.60
14142;DHT22;7151;52.246;4.820;2022-07-04T12:53:36;26.90;46.70
14142;DHT22;7151;52.246;4.820;2022-07-04T12:56:02;26.90;46.70
14142;DHT22;7151;52.246;4.820;2022-07-04T12:58:28;27.00;46.70
14142;DHT22;7151;52.246;4.820;2022-07-04T13:00:54;27.10;46.40
14142;DHT22;7151;52.246;4.820;2022-07-04T13:03:19;27.10;46.20
14142;DHT22;7151;52.246;4.820;2022-07-04T13:05:45;27.10;46.20
14142;DHT22;7151;52.246;4.820;2022-07-04T13:08:10;27.20;46.00
14142;DHT22;7151;52.246;4.820;2022-07-04T13:10:37;27.40;46.00
14142;DHT22;7151;52.246;4.820;2022-07-04T13:13:03;27.40;45.70
14142;DHT22;7151;52.246;4.820;2022-07-04T13:15:28;27.40;45.20
14142;DHT22;7151;52.246;4.820;2022-07-04T13:17:54;27.50;45.10
14142;DHT22;7151;52.246;4.820;2022-07-04T13:20:20;27.50;45.10
14142;DHT22;7151;52.246;4.820;2022-07-04T13:22:45;27.60;45.20
14142;DHT22;7151;52.246;4.820;2022-07-04T13:25:11;27.60;45.20
14142;DHT22;7151;52.246;4.820;2022-07-04T13:27:36;27.60;44.90
14142;DHT22;7151;52.246;4.820;2022-07-04T13:30:02;27.70;44.90
14142;DHT22;7151;52.246;4.820;2022-07-04T13:32:28;27.80;44.70
14142;DHT22;7151;52.246;4.820;2022-07-04T13:34:54;27.80;44.40
14142;DHT22;7151;52.246;4.820;2022-07-04T13:37:20;27.90;44.40
14142;DHT22;7151;52.246;4.820;2022-07-04T13:39:45;27.90;44.30
14142;DHT22;7151;52.246;4.820;2022-07-04T13:42:11;28.00;44.60
14142;DHT22;7151;52.246;4.820;2022-07-04T13:44:37;28.00;44.50
14142;DHT22;7151;52.246;4.820;2022-07-04T13:47:03;28.10;44.30
14142;DHT22;7151;52.246;4.820;2022-07-04T13:49:28;28.20;44.10
14142;DHT22;7151;52.246;4.820;2022-07-04T13:51:54;28.30;43.90
14142;DHT22;7151;52.246;4.820;2022-07-04T13:54:20;28.30;43.70
14142;DHT22;7151;52.246;4.820;2022-07-04T13:56:45;28.40;43.70
14142;DHT22;7151;52.246;4.820;2022-07-04T13:59:11;28.40;43.40
14142;DHT22;7151;52.246;4.820;2022-07-04T14:01:37;28.50;43.60
14142;DHT22;7151;52.246;4.820;2022-07-04T14:04:03;28.60;43.60
14142;DHT22;7151;52.246;4.820;2022-07-04T14:06:29;28.60;43.70
14142;DHT22;7151;52.246;4.820;2022-07-04T14:08:54;28.70;43.40
14142;DHT22;7151;52.246;4.820;2022-07-04T14:11:20;28.80;43.10
14142;DHT22;7151;52.246;4.820;2022-07-04T14:13:46;28.90;43.10
14142;DHT22;7151;52.246;4.820;2022-07-04T14:16:11;28.90;42.70
14142;DHT22;7151;52.246;4.820;2022-07-04T14:18:37;29.00;42.40
14142;DHT22;7151;52.246;4.820;2022-07-04T14:21:02;29.10;42.80
14142;DHT22;7151;52.246;4.820;2022-07-04T14:23:28;29.10;42.10
14142;DHT22;7151;52.246;4.820;2022-07-04T14:26:07;29.20;42.00
14142;DHT22;7151;52.246;4.820;2022-07-04T14:28:33;29.20;42.00
14142;DHT22;7151;52.246;4.820;2022-07-04T14:30:59;29.30;41.80
14142;DHT22;7151;52.246;4.820;2022-07-04T14:33:25;29.30;41.60
14142;DHT22;7151;52.246;4.820;2022-07-04T14:35:51;29.30;41.60
14142;DHT22;7151;52.246;4.820;2022-07-04T14:38:18;29.40;41.50
14142;DHT22;7151;52.246;4.820;2022-07-04T14:40:43;29.40;41.50
14142;DHT22;7151;52.246;4.820;2022-07-04T14:43:12;29.50;41.50
14142;DHT22;7151;52.246;4.820;2022-07-04T14:45:38;29.60;41.40
14142;DHT22;7151;52.246;4.820;2022-07-04T14:48:04;29.60;41.40
14142;DHT22;7151;52.246;4.820;2022-07-04T14:50:30;29.70;41.30
14142;DHT22;7151;52.246;4.820;2022-07-04T14:52:55;29.80;41.10
14142;DHT22;7151;52.246;4.820;2022-07-04T14:55:21;29.80;40.90
14142;DHT22;7151;52.246;4.820;2022-07-04T14:57:47;29.80;40.70
14142;DHT22;7151;52.246;4.820;2022-07-04T15:00:12;29.90;40.60
14142;DHT22;7151;52.246;4.820;2022-07-04T15:02:38;30.00;40.60
14142;DHT22;7151;52.246;4.820;2022-07-04T15:05:04;30.00;40.60
14142;DHT22;7151;52.246;4.820;2022-07-04T15:07:29;30.00;40.40
14142;DHT22;7151;52.246;4.820;2022-07-04T15:09:56;30.10;40.30
14142;DHT22;7151;52.246;4.820;2022-07-04T15:12:21;30.10;40.10
14142;DHT22;7151;52.246;4.820;2022-07-04T15:14:47;30.20;40.10
14142;DHT22;7151;52.246;4.820;2022-07-04T15:17:13;30.20;39.80
14142;DHT22;7151;52.246;4.820;2022-07-04T15:19:39;30.30;39.60
14142;DHT22;7151;52.246;4.820;2022-07-04T15:22:23;30.40;39.60
14142;DHT22;7151;52.246;4.820;2022-07-04T15:25:08;30.30;39.60
14142;DHT22;7151;52.246;4.820;2022-07-04T15:27:33;30.40;39.60
14142;DHT22;7151;52.246;4.820;2022-07-04T15:29:59;30.40;39.40
14142;DHT22;7151;52.246;4.820;2022-07-04T15:32:24;30.40;39.30
14142;DHT22;7151;52.246;4.820;2022-07-04T15:34:50;30.40;39.10
14142;DHT22;7151;52.246;4.820;2022-07-04T15:37:16;30.40;39.10
14142;DHT22;7151;52.246;4.820;2022-07-04T15:39:41;30.50;39.50
14142;DHT22;7151;52.246;4.820;2022-07-04T15:42:07;30.50;38.70
14142;DHT22;7151;52.246;4.820;2022-07-04T15:44:35;30.50;38.60
14142;DHT22;7151;52.246;4.820;2022-07-04T15:47:01;30.50;38.70
14142;DHT22;7151;52.246;4.820;2022-07-04T15:49:36;30.50;38.70
14142;DHT22;7151;52.246;4.820;2022-07-04T15:52:03;30.50;38.80
14142;DHT22;7151;52.246;4.820;2022-07-04T15:54:30;30.50;39.20
14142;DHT22;7151;52.246;4.820;2022-07-04T15:56:56;30.50;39.20
14142;DHT22;7151;52.246;4.820;2022-07-04T15:59:22;30.50;39.20
14142;DHT22;7151;52.246;4.820;2022-07-04T16:01:47;30.60;39.40
14142;DHT22;7151;52.246;4.820;2022-07-04T16:04:13;30.60;39.40